Time,TemperatureF,DewpointF,PressureIn,WindDirection,WindDirectionDegrees,WindSpeedMPH,WindSpeedGustMPH,Humidity,HourlyPrecipIn,Conditions,Clouds,dailyrainin,SolarRadiationWatts/m^2,SoftwareType,DateUTC
2013-10-29 00:29:00,32.2,25.5,30.35,NNW,327,0.0,0.0,76,0.00,CLR,,0.00,0.0,WeatherDisplay:10.37,2013-10-29 04:29:00,
2013-10-29 01:00:00,31.2,25.1,30.36,NW,326,0.0,0.0,78,0.00,CLR,,0.00,0.0,WeatherDisplay:10.37,2013-10-29 05:00:00,
2013-10-29 01:29:00,29.7,24.6,30.37,NNW,327,0.0,0.0,81,0.00,CLR,,0.00,0.0,WeatherDisplay:10.37,2013-10-29 05:29:00,
2013-10-29 02:00:00,28.8,24.3,30.37,NNW,327,0.0,0.0,83,0.00,CLR,,0.00,0.0,WeatherDisplay:10.37,2013-10-29 06:00:00,
2013-10-29 02:29:00,28.2,24.2,30.38,NNW,327,0.0,0.0,85,0.00,CLR,,0.00,0.0,WeatherDisplay:10.37,2013-10-29 06:29:00,
2013-10-29 02:59:00,27.4,23.5,30.38,NNW,327,0.0,0.0,85,0.00,CLR,,0.00,0.0,WeatherDisplay:10.37,2013-10-29 06:59:00,
2013-10-29 03:29:00,26.9,23.5,30.38,NNW,327,0.0,0.0,87,0.00,CLR,,0.00,0.0,WeatherDisplay:10.37,2013-10-29 07:29:00,
2013-10-29 03:59:00,26.4,23.3,30.38,NNW,327,0.0,0.0,88,0.00,CLR,,0.00,0.0,WeatherDisplay:10.37,2013-10-29 07:59:00,
2013-10-29 04:29:00,26.0,22.9,30.39,NNW,327,0.0,0.0,88,0.00,CLR,,0.00,0.0,WeatherDisplay:10.37,2013-10-29 08:29:00,
2013-10-29 04:59:00,25.8,23.1,30.39,NNW,327,0.0,0.0,89,0.00,CLR,,0.00,0.0,WeatherDisplay:10.37,2013-10-29 08:59:00,
2013-10-29 05:29:00,25.8,23.3,30.40,NNW,327,0.0,0.0,90,0.00,CLR,,0.00,0.0,WeatherDisplay:10.37,2013-10-29 09:29:00,
2013-10-29 05:59:00,25.5,23.0,30.41,NNW,327,0.0,0.0,90,0.00,CLR,,0.00,0.0,WeatherDisplay:10.37,2013-10-29 09:59:00,
2013-10-29 06:29:00,25.6,23.1,30.41,NNW,327,0.0,0.0,90,0.00,CLR,,0.00,0.0,WeatherDisplay:10.37,2013-10-29 10:29:00,
2013-10-29 06:59:00,25.6,23.1,30.42,NNW,327,0.0,1.0,90,0.00,OVC,,0.00,0.0,WeatherDisplay:10.37,2013-10-29 10:59:00,
2013-10-29 07:30:00,25.6,23.3,30.42,NNW,327,0.0,1.0,91,0.00,BKN,,0.00,11.0,WeatherDisplay:10.37,2013-10-29 11:30:00,
2013-10-29 08:00:00,25.8,23.5,30.42,NNW,327,0.0,1.0,91,0.00,BKN,,0.00,21.0,WeatherDisplay:10.37,2013-10-29 12:00:00,
2013-10-29 08:29:00,27.2,25.2,30.43,NNW,327,0.0,1.0,92,0.00,CLR,,0.00,171.0,WeatherDisplay:10.37,2013-10-29 12:29:00,
2013-10-29 08:59:00,32.0,27.2,30.44,NW,326,0.0,3.0,82,0.00,SCT,,0.00,46.0,WeatherDisplay:10.37,2013-10-29 12:59:00,
2013-10-29 09:29:00,34.2,28.1,30.44,NW,325,0.0,3.0,78,0.00,SCT,,0.00,165.0,WeatherDisplay:10.37,2013-10-29 13:29:00,
2013-10-29 09:59:00,38.0,28.4,30.44,NW,326,0.0,3.0,68,0.00,CLR,,0.00,454.0,WeatherDisplay:10.37,2013-10-29 13:59:00,
2013-10-29 10:29:00,41.0,30.1,30.43,North,359,2.0,8.0,65,0.00,SCT,,0.00,559.0,WeatherDisplay:10.37,2013-10-29 14:29:00,
2013-10-29 10:59:00,43.0,30.1,30.43,NNW,345,2.0,4.0,60,0.00,FEW,,0.00,545.0,WeatherDisplay:10.37,2013-10-29 14:59:00,
2013-10-29 11:29:00,44.5,31.0,30.43,NW,318,1.0,6.0,59,0.00,CLR,,0.00,615.0,WeatherDisplay:10.37,2013-10-29 15:29:00,
2013-10-29 11:59:00,44.1,31.5,30.41,NW,320,1.0,9.0,61,0.00,SCT,,0.00,696.0,WeatherDisplay:10.37,2013-10-29 15:59:00,
2013-10-29 12:29:00,44.8,31.8,30.40,North,8,0.0,4.0,60,0.00,BKN,,0.00,163.0,WeatherDisplay:10.37,2013-10-29 16:29:00,
2013-10-29 12:59:00,47.3,31.0,30.40,South,184,1.0,5.0,53,0.00,FEW,,0.00,294.0,WeatherDisplay:10.37,2013-10-29 16:59:00,
2013-10-29 13:30:00,46.8,30.5,30.39,West,270,2.0,7.0,53,0.00,CLR,,0.00,439.0,WeatherDisplay:10.37,2013-10-29 17:30:00,
2013-10-29 13:59:00,46.8,28.1,30.38,WSW,252,1.0,5.0,48,0.00,CLR,,0.00,563.0,WeatherDisplay:10.37,2013-10-29 17:59:00,
2013-10-29 14:29:00,47.2,29.0,30.38,NE,51,0.0,5.0,49,0.00,CLR,,0.00,531.0,WeatherDisplay:10.37,2013-10-29 18:29:00,
2013-10-29 14:59:00,47.1,26.3,30.37,South,178,2.0,7.0,44,0.00,BKN,,0.00,58.0,WeatherDisplay:10.37,2013-10-29 18:59:00,
2013-10-29 15:29:00,46.8,26.5,30.37,South,190,0.0,5.0,45,0.00,BKN,,0.00,37.0,WeatherDisplay:10.37,2013-10-29 19:29:00,
2013-10-29 15:59:00,46.4,26.7,30.38,SSW,210,1.0,3.0,46,0.00,BKN,,0.00,30.0,WeatherDisplay:10.37,2013-10-29 19:59:00,
2013-10-29 16:29:00,45.8,26.1,30.38,West,279,0.0,4.0,46,0.00,BKN,,0.00,26.0,WeatherDisplay:10.37,2013-10-29 20:29:00,
2013-10-29 16:59:00,45.0,24.4,30.38,West,281,0.0,2.0,44,0.00,BKN,,0.00,19.0,WeatherDisplay:10.37,2013-10-29 20:59:00,
2013-10-29 17:29:00,43.7,32.3,30.38,WNW,283,0.0,3.0,64,0.00,BKN,,0.00,9.0,WeatherDisplay:10.37,2013-10-29 21:29:00,
2013-10-29 17:59:00,40.6,31.2,30.38,WNW,283,0.0,1.0,69,0.00,CLR,,0.00,0.0,WeatherDisplay:10.37,2013-10-29 21:59:00,
2013-10-29 18:30:00,38.1,30.9,30.38,WNW,283,0.0,0.0,75,0.00,CLR,,0.00,0.0,WeatherDisplay:10.37,2013-10-29 22:30:00,
2013-10-29 19:00:00,36.2,30.6,30.38,WNW,283,0.0,0.0,80,0.00,CLR,,0.00,0.0,WeatherDisplay:10.37,2013-10-29 23:00:00,
2013-10-29 19:30:00,34.4,30.1,30.39,WNW,283,0.0,0.0,84,0.00,CLR,,0.00,0.0,WeatherDisplay:10.37,2013-10-29 23:30:00,
2013-10-29 20:00:00,32.8,29.1,30.40,WNW,283,0.0,0.0,86,0.00,CLR,,0.00,0.0,WeatherDisplay:10.37,2013-10-30 00:00:00,
2013-10-29 20:30:00,31.6,28.4,30.40,WNW,283,0.0,0.0,88,0.00,CLR,,0.00,0.0,WeatherDisplay:10.37,2013-10-30 00:30:00,
2013-10-29 21:00:00,30.6,27.7,30.39,WNW,283,0.0,0.0,89,0.00,CLR,,0.00,0.0,WeatherDisplay:10.37,2013-10-30 01:00:00,
2013-10-29 21:30:00,29.8,27.2,30.39,WNW,283,0.0,0.0,90,0.00,CLR,,0.00,0.0,WeatherDisplay:10.37,2013-10-30 01:30:00,
2013-10-29 22:00:00,29.2,26.9,30.39,WNW,283,0.0,0.0,91,0.00,CLR,,0.00,0.0,WeatherDisplay:10.37,2013-10-30 02:00:00,
2013-10-29 22:30:00,28.7,26.4,30.38,WNW,283,0.0,0.0,91,0.00,CLR,,0.00,0.0,WeatherDisplay:10.37,2013-10-30 02:30:00,
2013-10-29 23:00:00,28.3,26.3,30.38,WNW,283,0.0,0.0,92,0.00,CLR,,0.00,0.0,WeatherDisplay:10.37,2013-10-30 03:00:00,
2013-10-29 23:30:00,28.3,26.3,30.38,WNW,283,0.0,0.0,92,0.00,CLR,,0.00,0.0,WeatherDisplay:10.37,2013-10-30 03:30:00,